createdAt,value
2022-09-09T09:46:30.380Z,98364.97
2022-09-09T09:49:58.591Z,98371.66
2022-09-09T09:53:22.922Z,98379.56
2022-09-09T09:56:34.412Z,98373.75
2022-09-09T09:59:47.928Z,98379.09
2022-09-09T10:03:21.991Z,98375.31
2022-09-09T10:06:42.163Z,98374.34
2022-09-09T10:09:58.435Z,98366.63
2022-09-09T10:13:24.912Z,98372.03
2022-09-09T10:16:49.539Z,98352.69
2022-09-09T10:20:20.335Z,98350.56
2022-09-09T10:23:46.715Z,98351.84
2022-09-09T10:27:04.019Z,98343.25
2022-09-09T10:30:18.718Z,98343.75
2022-09-09T10:33:35.059Z,98337.22
2022-09-09T10:36:52.409Z,98329.84
2022-09-09T10:40:19.230Z,98323.44
2022-09-09T10:43:44.932Z,98319.31
2022-09-09T10:47:08.039Z,98330.25
2022-09-09T10:51:00.006Z,98324.00
2022-09-09T10:54:19.913Z,98328.66
2022-09-09T10:57:39.619Z,98338.88
2022-09-09T11:00:58.390Z,98342.09
2022-09-09T11:04:19.896Z,98337.75
2022-09-09T11:07:37.337Z,98325.84
2022-09-09T11:10:56.678Z,98323.16
2022-09-09T11:14:17.160Z,98316.25
2022-09-09T11:17:32.037Z,98320.31
2022-09-09T11:20:42.406Z,98316.38
2022-09-09T11:23:59.954Z,98336.13
2022-09-09T11:27:17.172Z,98334.81
2022-09-09T11:30:55.435Z,98338.22
2022-09-09T11:34:23.282Z,98346.75
2022-09-09T11:38:02.872Z,98348.88
2022-09-09T11:41:12.686Z,98346.28
2022-09-09T11:44:30.995Z,98351.81
2022-09-09T11:47:40.747Z,98359.06
2022-09-09T11:51:01.216Z,98408.44
2022-09-09T11:54:33.411Z,98425.63
2022-09-09T11:57:48.907Z,98442.66
2022-09-09T12:01:00.926Z,98437.63
2022-09-09T12:04:22.220Z,98417.06
2022-09-09T12:07:37.933Z,98406.19
2022-09-09T12:11:00.538Z,98399.25
2022-09-09T12:14:22.117Z,98400.22
2022-09-09T12:17:39.385Z,98408.91
2022-09-09T12:20:59.234Z,98390.81
2022-09-09T12:24:12.124Z,98388.75
2022-09-09T12:27:28.670Z,98385.41
2022-09-09T12:30:48.252Z,98385.94
2022-09-09T12:34:12.106Z,98392.41
2022-09-09T12:37:31.456Z,98399.66
2022-09-09T12:40:41.676Z,98390.13
2022-09-09T12:43:51.992Z,98393.00
2022-09-09T12:47:05.198Z,98375.38
2022-09-09T12:50:26.676Z,98376.25
2022-09-09T12:53:40.493Z,98370.69
2022-09-09T12:56:53.340Z,98346.91
2022-09-09T13:00:11.355Z,98338.38
2022-09-09T13:03:22.803Z,98337.25
2022-09-09T13:06:35.181Z,98327.91
2022-09-09T13:09:46.038Z,98329.38
2022-09-09T13:12:55.918Z,98339.50
2022-09-09T13:16:09.437Z,98326.84
2022-09-09T13:19:19.393Z,98316.38
2022-09-09T13:22:34.028Z,98306.56
2022-09-09T13:25:54.643Z,98310.28
2022-09-09T13:29:22.980Z,98305.41
2022-09-09T13:32:35.133Z,98317.31
2022-09-09T13:35:50.187Z,98320.06
2022-09-09T13:39:03.716Z,98313.13
2022-09-09T13:42:26.453Z,98310.34
2022-09-09T13:45:39.605Z,98311.31
2022-09-09T13:49:03.606Z,98316.44
2022-09-09T13:52:15.297Z,98309.94
2022-09-09T13:55:28.407Z,98314.78
2022-09-09T13:58:38.143Z,98313.22
2022-09-09T14:01:49.976Z,98307.25
2022-09-09T14:05:01.770Z,98313.28
2022-09-09T14:08:22.247Z,98316.50
2022-09-09T14:11:33.322Z,98324.16
2022-09-09T14:14:46.469Z,98337.53
2022-09-09T14:17:56.088Z,98327.88
2022-09-09T14:21:05.852Z,98332.41
2022-09-09T14:24:15.477Z,98327.69
2022-09-09T14:27:29.619Z,98325.84
2022-09-09T14:30:41.311Z,98329.03
2022-09-09T14:33:51.701Z,98329.81
2022-09-09T14:37:03.693Z,98335.81
2022-09-09T14:40:13.508Z,98333.03
2022-09-09T14:43:24.528Z,98349.16
2022-09-09T14:46:34.463Z,98324.38
2022-09-09T14:49:46.566Z,98314.50
2022-09-09T14:52:56.941Z,98306.09
2022-09-09T14:56:09.338Z,98299.06
2022-09-09T14:59:23.250Z,98292.34
2022-09-09T15:02:40.243Z,98283.06
2022-09-09T15:05:50.095Z,98278.66
2022-09-09T15:08:59.870Z,98289.25
2022-09-09T15:12:09.813Z,98268.44
2022-09-09T15:15:23.352Z,98268.41
2022-09-09T15:18:36.385Z,98268.03
2022-09-09T15:21:46.286Z,98270.78
2022-09-09T15:24:55.960Z,98277.59
2022-09-09T15:28:05.679Z,98283.06
2022-09-09T15:31:19.550Z,98294.41
2022-09-09T15:34:29.266Z,98301.66
2022-09-09T15:37:38.934Z,98308.44
2022-09-09T15:40:56.346Z,98310.97
2022-09-09T15:44:07.285Z,98315.16
2022-09-09T15:47:18.833Z,98319.41
2022-09-09T15:50:29.404Z,98318.16
2022-09-09T15:53:40.062Z,98309.22
2022-09-09T15:56:55.858Z,98310.69
2022-09-09T16:00:09.717Z,98333.78
2022-09-09T16:03:22.372Z,98334.94
2022-09-09T16:06:32.210Z,98334.06
2022-09-09T16:09:44.348Z,98341.13
2022-09-09T16:12:54.490Z,98345.22
2022-09-09T16:16:05.654Z,98355.56
2022-09-09T16:19:17.857Z,98377.31
2022-09-09T16:22:30.690Z,98409.81
2022-09-09T16:25:40.544Z,98405.94
2022-09-09T16:28:50.893Z,98401.66
2022-09-09T16:32:03.946Z,98408.38
2022-09-09T16:35:20.445Z,98407.19
2022-09-09T16:38:31.254Z,98410.47
2022-09-09T16:41:41.739Z,98395.59
2022-09-09T16:44:51.814Z,98384.84
2022-09-09T16:48:02.025Z,98393.13
2022-09-09T16:51:16.425Z,98392.50
2022-09-09T16:54:27.853Z,98390.50
2022-09-09T16:57:39.605Z,98398.91
2022-09-09T17:00:49.904Z,98398.69
2022-09-09T17:04:01.780Z,98395.81
2022-09-09T17:07:15.524Z,98390.28
2022-09-09T17:10:26.533Z,98387.34
2022-09-09T17:13:36.448Z,98385.88
2022-09-09T17:16:49.048Z,98382.34
2022-09-09T17:20:03.375Z,98373.84
2022-09-09T17:23:16.221Z,98373.88
2022-09-09T17:26:28.596Z,98377.94
2022-09-09T17:29:38.527Z,98392.81
2022-09-09T17:32:48.225Z,98402.84
2022-09-09T17:35:59.334Z,98409.44
2022-09-09T17:39:10.304Z,98407.50
2022-09-09T17:42:19.902Z,98416.84
2022-09-09T17:45:31.226Z,98424.84
2022-09-09T17:48:44.071Z,98411.91
2022-09-09T17:51:54.845Z,98421.53
2022-09-09T17:55:06.519Z,98423.28
2022-09-09T17:58:18.122Z,98420.06
2022-09-09T18:01:31.391Z,98428.47
2022-09-09T18:04:50.350Z,98424.75
2022-09-09T18:07:59.943Z,98430.34
2022-09-09T18:11:11.033Z,98429.78
2022-09-09T18:14:24.122Z,98430.97
2022-09-09T18:17:33.911Z,98434.75
2022-09-09T18:20:44.216Z,98454.66
2022-09-09T18:23:57.024Z,98472.50
2022-09-09T18:27:11.102Z,98471.94
2022-09-09T18:30:21.017Z,98475.00
2022-09-09T18:33:30.992Z,98485.34
2022-09-09T18:36:43.403Z,98515.50
2022-09-09T18:39:53.061Z,98522.69
2022-09-09T18:43:04.063Z,98519.59
2022-09-09T18:46:13.808Z,98512.69
2022-09-09T18:49:25.437Z,98504.91
2022-09-09T18:52:35.105Z,98508.13
2022-09-09T18:55:44.780Z,98502.97
2022-09-09T18:58:58.803Z,98497.16
2022-09-09T19:02:12.050Z,98502.66
2022-09-09T19:05:21.801Z,98499.41
2022-09-09T19:08:31.579Z,98499.59
2022-09-09T19:11:41.804Z,98494.56
2022-09-09T19:14:55.676Z,98493.69
2022-09-09T19:18:06.018Z,98489.88
2022-09-09T19:21:18.717Z,98486.22
2022-09-09T19:24:30.238Z,98482.03
2022-09-09T19:27:39.931Z,98473.97
2022-09-09T19:30:54.223Z,98472.81
2022-09-09T19:34:03.866Z,98478.22
2022-09-09T19:37:18.169Z,98467.09
2022-09-09T19:40:30.510Z,98471.53
2022-09-09T19:43:40.580Z,98463.88
2022-09-09T19:46:55.386Z,98469.94
2022-09-09T19:50:05.777Z,98470.19
2022-09-09T19:53:15.399Z,98476.31
2022-09-09T19:56:31.662Z,98469.25
2022-09-09T19:59:43.455Z,98480.53
2022-09-09T20:03:17.521Z,98487.31
2022-09-09T20:06:28.179Z,98491.66
2022-09-09T20:09:40.465Z,98486.19
2022-09-09T20:12:50.607Z,98480.81
2022-09-09T20:16:01.802Z,98477.59
2022-09-09T20:19:16.110Z,98483.00
2022-09-09T20:22:25.773Z,98480.53
2022-09-09T20:25:36.942Z,98477.75
2022-09-09T20:28:46.945Z,98486.41
2022-09-09T20:31:58.919Z,98487.06
2022-09-09T20:35:10.146Z,98485.19
2022-09-09T20:38:19.731Z,98485.25
2022-09-09T20:41:34.992Z,98483.59
2022-09-09T20:44:44.673Z,98479.22
2022-09-09T20:47:56.242Z,98492.22
2022-09-09T20:51:10.942Z,98493.94
2022-09-09T20:54:25.641Z,98498.28
2022-09-09T20:57:39.605Z,98498.75
2022-09-09T21:00:49.181Z,98489.25
2022-09-09T21:04:00.209Z,98492.28
2022-09-09T21:07:16.386Z,98496.41
2022-09-09T21:10:26.253Z,98491.97
2022-09-09T21:13:37.957Z,98488.56
2022-09-09T21:16:50.748Z,98486.94
2022-09-09T21:20:03.206Z,98492.84
2022-09-09T21:23:15.754Z,98481.63
2022-09-09T21:26:28.488Z,98482.50
